createdAt,value
2018-06-07T00:02:24.515Z,14.89
2018-06-07T00:04:53.269Z,14.90
2018-06-07T00:07:22.045Z,14.88
2018-06-07T00:09:50.798Z,14.87
2018-06-07T00:12:19.687Z,14.88
2018-06-07T00:14:48.422Z,14.85
2018-06-07T00:17:17.358Z,14.83
2018-06-07T00:19:46.143Z,14.81
2018-06-07T00:22:14.927Z,14.79
2018-06-07T00:24:43.695Z,14.75
2018-06-07T00:27:12.456Z,14.73
2018-06-07T00:29:41.204Z,14.75
2018-06-07T00:32:09.963Z,14.74
2018-06-07T00:34:38.829Z,14.71
2018-06-07T00:37:07.695Z,14.71
2018-06-07T00:39:36.463Z,14.71
2018-06-07T00:42:05.243Z,14.71
2018-06-07T00:44:34.011Z,14.69
2018-06-07T00:47:02.787Z,14.68
2018-06-07T00:49:31.596Z,14.64
2018-06-07T00:52:00.334Z,14.64
2018-06-07T00:54:29.091Z,14.61
2018-06-07T00:57:09.623Z,14.59
2018-06-07T00:59:38.389Z,14.58
2018-06-07T01:02:07.258Z,14.59
2018-06-07T01:04:36.037Z,14.60
2018-06-07T01:07:04.858Z,14.58
2018-06-07T01:09:33.616Z,14.60
2018-06-07T01:12:02.380Z,14.64
2018-06-07T01:14:31.132Z,14.69
2018-06-07T01:16:59.902Z,14.73
2018-06-07T01:19:28.672Z,14.77
2018-06-07T01:21:57.451Z,14.79
2018-06-07T01:24:26.773Z,14.78
2018-06-07T01:26:55.554Z,14.81
2018-06-07T01:29:35.240Z,14.81
2018-06-07T01:32:31.757Z,14.82
2018-06-07T01:35:00.503Z,14.81
2018-06-07T01:37:29.366Z,14.79
2018-06-07T01:39:58.120Z,14.79
2018-06-07T01:42:26.867Z,14.75
2018-06-07T01:44:55.621Z,14.74
2018-06-07T01:47:24.380Z,14.71
2018-06-07T01:49:53.141Z,14.69
2018-06-07T01:52:21.897Z,14.69
2018-06-07T01:54:50.666Z,14.69
2018-06-07T01:57:19.411Z,14.73
2018-06-07T01:59:48.250Z,14.74
2018-06-07T02:02:17.014Z,14.68
2018-06-07T02:04:46.356Z,14.71
2018-06-07T02:07:15.155Z,14.81
2018-06-07T02:09:43.922Z,14.84
2018-06-07T02:12:12.697Z,14.88
2018-06-07T02:14:41.494Z,14.91
2018-06-07T02:17:10.293Z,14.97
2018-06-07T02:19:39.043Z,14.99
2018-06-07T02:22:08.764Z,14.99
2018-06-07T02:24:37.523Z,14.97
2018-06-07T02:27:06.308Z,14.93
2018-06-07T02:29:35.080Z,14.93
2018-06-07T02:32:03.852Z,14.91
2018-06-07T02:34:32.648Z,14.85
2018-06-07T02:37:01.424Z,14.82
2018-06-07T02:39:30.179Z,14.80
2018-06-07T02:41:58.927Z,14.78
2018-06-07T02:44:27.733Z,14.75
2018-06-07T02:46:56.480Z,14.72
2018-06-07T02:49:25.240Z,14.72
2018-06-07T02:51:54.012Z,14.72
2018-06-07T02:54:22.774Z,14.64
2018-06-07T02:56:51.556Z,14.63
2018-06-07T02:59:20.314Z,14.69
2018-06-07T03:01:49.092Z,14.70
2018-06-07T03:04:17.863Z,14.73
2018-06-07T03:06:46.710Z,14.78
2018-06-07T03:09:15.507Z,14.80
2018-06-07T03:11:44.267Z,14.84
2018-06-07T03:14:13.029Z,14.84
2018-06-07T03:16:41.821Z,14.81
2018-06-07T03:19:10.577Z,14.82
2018-06-07T03:21:39.336Z,14.87
2018-06-07T03:24:08.087Z,14.99
2018-06-07T03:26:36.856Z,15.12
2018-06-07T03:29:05.759Z,15.22
2018-06-07T03:31:34.591Z,15.67
2018-06-07T03:34:03.350Z,16.46
2018-06-07T03:36:32.105Z,17.32
2018-06-07T03:39:00.867Z,17.73
2018-06-07T03:41:29.657Z,17.74
2018-06-07T03:43:58.427Z,17.57
2018-06-07T03:46:27.199Z,17.19
2018-06-07T03:48:55.963Z,16.68
2018-06-07T03:51:24.809Z,16.31
2018-06-07T03:53:53.567Z,15.88
2018-06-07T03:56:22.329Z,15.92
2018-06-07T03:58:51.208Z,16.03
2018-06-07T04:01:19.951Z,16.15
2018-06-07T04:03:48.731Z,16.23
2018-06-07T04:06:17.582Z,16.45
2018-06-07T04:08:46.304Z,16.71
2018-06-07T04:11:15.083Z,16.92
2018-06-07T04:13:43.950Z,17.17
2018-06-07T04:16:12.859Z,17.18
2018-06-07T04:18:41.600Z,17.19
2018-06-07T04:21:10.413Z,17.44
2018-06-07T04:23:39.159Z,17.87
2018-06-07T04:26:08.135Z,18.28
2018-06-07T04:28:36.932Z,18.54
2018-06-07T04:31:05.693Z,18.85
2018-06-07T04:33:34.453Z,19.13
2018-06-07T04:36:03.243Z,19.71
2018-06-07T04:38:32.002Z,20.43
2018-06-07T04:41:00.767Z,21.48
2018-06-07T04:43:29.553Z,22.68
2018-06-07T04:45:58.345Z,23.51
2018-06-07T04:48:27.143Z,23.76
2018-06-07T04:50:55.928Z,23.17
2018-06-07T04:53:24.699Z,23.31
2018-06-07T04:55:53.440Z,24.17
2018-06-07T04:58:22.267Z,24.55
2018-06-07T05:00:51.288Z,23.69
2018-06-07T05:03:20.055Z,22.91
2018-06-07T05:05:48.842Z,22.24
2018-06-07T05:08:17.598Z,21.90
2018-06-07T05:10:46.378Z,22.22
2018-06-07T05:13:15.179Z,22.75
2018-06-07T05:15:43.964Z,23.63
2018-06-07T05:18:12.742Z,24.96
2018-06-07T05:20:41.566Z,26.48
2018-06-07T05:23:10.393Z,27.87
2018-06-07T05:25:39.180Z,28.70
2018-06-07T05:28:07.948Z,28.80
2018-06-07T05:30:36.722Z,28.71
2018-06-07T05:33:05.539Z,28.10
2018-06-07T05:35:34.324Z,28.55
2018-06-07T05:38:03.099Z,28.49
2018-06-07T05:40:31.890Z,28.74
2018-06-07T05:43:00.780Z,28.63
2018-06-07T05:45:29.557Z,28.43
2018-06-07T05:47:58.351Z,28.57
2018-06-07T05:50:27.448Z,28.96
2018-06-07T05:52:56.207Z,28.94
2018-06-07T05:55:24.991Z,28.84
2018-06-07T05:57:53.810Z,28.51
2018-06-07T06:00:22.580Z,28.17
2018-06-07T06:02:51.429Z,28.11
2018-06-07T06:05:20.277Z,28.10
2018-06-07T06:07:49.053Z,27.67
2018-06-07T06:10:17.870Z,27.71
2018-06-07T06:12:46.635Z,28.09
2018-06-07T06:15:15.444Z,27.47
2018-06-07T06:17:44.221Z,27.80
2018-06-07T06:20:13.001Z,27.84
2018-06-07T06:22:41.808Z,28.20
2018-06-07T06:25:10.617Z,28.27
2018-06-07T06:27:39.394Z,27.81
2018-06-07T06:30:08.429Z,27.46
2018-06-07T06:32:37.209Z,27.21
2018-06-07T06:35:06.022Z,27.35
2018-06-07T06:37:48.690Z,26.61
2018-06-07T06:40:17.466Z,26.86
2018-06-07T06:42:46.241Z,26.82
2018-06-07T06:45:15.017Z,26.61
2018-06-07T06:47:43.843Z,26.81
2018-06-07T06:50:12.605Z,27.19
2018-06-07T06:52:41.424Z,27.40
2018-06-07T06:55:10.216Z,27.60
2018-06-07T06:57:39.006Z,27.89
2018-06-07T07:00:07.770Z,28.04
2018-06-07T07:02:36.567Z,28.17
2018-06-07T07:05:05.429Z,28.07
2018-06-07T07:07:34.230Z,28.32
2018-06-07T07:10:03.073Z,28.38
2018-06-07T07:12:31.855Z,28.06
2018-06-07T07:15:00.620Z,27.84
2018-06-07T07:17:29.497Z,27.76
2018-06-07T07:19:58.279Z,27.69
2018-06-07T07:22:27.065Z,28.03
2018-06-07T07:24:55.878Z,28.06
2018-06-07T07:27:24.710Z,27.98
2018-06-07T07:29:53.605Z,27.18
2018-06-07T07:32:22.479Z,26.98
2018-06-07T07:34:51.292Z,27.33
2018-06-07T07:37:20.094Z,27.42
2018-06-07T07:39:48.879Z,27.53
2018-06-07T07:42:17.662Z,27.22
2018-06-07T07:44:46.475Z,27.03
2018-06-07T07:47:15.271Z,27.12
2018-06-07T07:49:44.103Z,27.31
2018-06-07T07:52:12.908Z,27.26
2018-06-07T07:54:41.795Z,27.72
2018-06-07T07:57:10.582Z,27.19
2018-06-07T07:59:39.399Z,27.05
2018-06-07T08:02:08.181Z,27.01
2018-06-07T08:04:37.005Z,27.26
2018-06-07T08:07:05.807Z,27.08
2018-06-07T08:09:34.595Z,26.64
2018-06-07T08:12:03.374Z,26.84
2018-06-07T08:14:32.162Z,26.75
2018-06-07T08:17:01.032Z,26.91
2018-06-07T08:19:29.816Z,26.70
2018-06-07T08:21:58.631Z,26.68
2018-06-07T08:24:27.396Z,26.51
2018-06-07T08:26:56.182Z,26.67
2018-06-07T08:29:24.976Z,26.81
2018-06-07T08:31:53.753Z,27.23
2018-06-07T08:34:22.557Z,27.27
2018-06-07T08:36:51.385Z,26.98
2018-06-07T08:39:20.204Z,26.88
2018-06-07T08:41:49.033Z,27.10
2018-06-07T08:44:17.801Z,26.93
2018-06-07T08:46:46.587Z,27.12
2018-06-07T08:49:15.369Z,27.23
2018-06-07T08:51:44.151Z,27.11
2018-06-07T08:54:12.944Z,27.16
2018-06-07T08:56:41.726Z,26.95
2018-06-07T08:59:10.546Z,27.03
2018-06-07T09:01:39.437Z,26.72
2018-06-07T09:04:08.201Z,26.57
2018-06-07T09:06:36.987Z,26.84
2018-06-07T09:09:06.801Z,26.68
2018-06-07T09:11:35.971Z,26.35
2018-06-07T09:14:05.054Z,26.39
2018-06-07T09:16:33.838Z,26.44
2018-06-07T09:19:02.615Z,26.54
2018-06-07T09:21:31.404Z,26.90
2018-06-07T09:24:00.279Z,27.21
2018-06-07T09:26:29.065Z,27.11
2018-06-07T09:28:57.842Z,26.99
2018-06-07T09:31:26.633Z,26.81
2018-06-07T09:33:55.429Z,26.77
2018-06-07T09:36:24.200Z,26.83
2018-06-07T09:38:52.966Z,26.79
2018-06-07T09:41:21.743Z,27.06
2018-06-07T09:43:50.536Z,27.20
2018-06-07T09:46:19.407Z,27.36
2018-06-07T09:48:48.216Z,27.72
2018-06-07T09:51:16.996Z,27.82
2018-06-07T09:53:45.776Z,27.67
2018-06-07T09:56:14.575Z,27.75
2018-06-07T09:58:43.413Z,27.52
2018-06-07T10:01:12.223Z,27.45
2018-06-07T10:03:41.017Z,27.52
2018-06-07T10:06:09.800Z,27.54
2018-06-07T10:08:38.694Z,27.68
2018-06-07T10:11:07.507Z,27.81
2018-06-07T10:13:36.328Z,27.83
2018-06-07T10:16:05.123Z,28.02
2018-06-07T10:18:33.952Z,28.12
2018-06-07T10:21:02.736Z,27.98
2018-06-07T10:23:31.527Z,28.23
2018-06-07T10:26:00.302Z,28.56
2018-06-07T10:28:29.094Z,28.75
2018-06-07T10:30:57.905Z,28.80
2018-06-07T10:33:26.655Z,28.92
2018-06-07T10:35:55.419Z,29.07
2018-06-07T10:38:24.223Z,29.30
2018-06-07T10:40:53.053Z,29.62
2018-06-07T10:43:21.830Z,30.14
2018-06-07T10:45:50.577Z,30.41
2018-06-07T10:48:19.336Z,30.31
2018-06-07T10:50:48.176Z,30.38
2018-06-07T10:53:17.007Z,30.18
2018-06-07T10:55:45.817Z,30.23
2018-06-07T10:58:14.619Z,30.36
2018-06-07T11:00:43.460Z,30.54
2018-06-07T11:03:12.264Z,30.51
2018-06-07T11:05:41.067Z,30.61
2018-06-07T11:08:09.841Z,30.64
2018-06-07T11:10:38.605Z,30.29
2018-06-07T11:13:07.410Z,30.09
2018-06-07T11:15:36.298Z,29.97
2018-06-07T11:18:05.145Z,29.79
2018-06-07T11:20:33.915Z,29.64
2018-06-07T11:23:02.691Z,29.72
2018-06-07T11:25:31.451Z,29.63
2018-06-07T11:28:00.229Z,29.73
2018-06-07T11:30:29.022Z,29.55
2018-06-07T11:32:57.789Z,29.48
2018-06-07T11:35:26.593Z,29.29
2018-06-07T11:37:55.484Z,29.15
2018-06-07T11:40:24.285Z,28.91
2018-06-07T11:42:53.051Z,28.84
2018-06-07T11:45:21.831Z,28.91
2018-06-07T11:47:50.615Z,29.14
2018-06-07T11:50:19.406Z,29.34
2018-06-07T11:52:48.248Z,29.15
2018-06-07T11:55:17.041Z,29.24
2018-06-07T11:57:45.808Z,29.32
2018-06-07T12:00:14.677Z,29.10
2018-06-07T12:02:43.486Z,28.63
2018-06-07T12:05:12.247Z,28.14
2018-06-07T12:07:41.039Z,27.81
2018-06-07T12:10:09.863Z,27.54
2018-06-07T12:12:38.689Z,27.30
2018-06-07T12:15:07.502Z,26.98
2018-06-07T12:17:36.345Z,26.97
2018-06-07T12:20:05.219Z,26.76
2018-06-07T12:22:34.048Z,26.57
2018-06-07T12:25:02.841Z,26.63
2018-06-07T12:27:31.716Z,26.54
2018-06-07T12:30:00.513Z,26.62
2018-06-07T12:32:29.334Z,26.55
2018-06-07T12:34:58.123Z,26.50
2018-06-07T12:37:26.903Z,26.16
2018-06-07T12:39:55.794Z,25.54
2018-06-07T12:42:24.511Z,24.99
2018-06-07T12:44:53.406Z,24.96
2018-06-07T12:47:22.187Z,24.48
2018-06-07T12:49:51.637Z,24.49
2018-06-07T12:52:20.408Z,24.58
2018-06-07T12:54:49.204Z,24.47
2018-06-07T12:57:17.998Z,24.46
2018-06-07T12:59:47.091Z,24.28
2018-06-07T13:02:15.858Z,24.06
2018-06-07T13:04:44.625Z,23.86
2018-06-07T13:07:13.397Z,23.84
2018-06-07T13:09:42.221Z,23.98
2018-06-07T13:12:10.983Z,24.21
2018-06-07T13:14:39.771Z,24.49
2018-06-07T13:17:08.565Z,24.77
2018-06-07T13:19:37.358Z,25.08
2018-06-07T13:22:06.329Z,25.03
2018-06-07T13:24:35.102Z,24.84
2018-06-07T13:27:03.859Z,24.51
2018-06-07T13:29:32.738Z,24.41
2018-06-07T13:32:01.524Z,24.23
2018-06-07T13:34:30.292Z,24.18
2018-06-07T13:36:59.096Z,24.30
2018-06-07T13:39:27.866Z,24.38
2018-06-07T13:41:56.706Z,24.68
2018-06-07T13:44:25.491Z,24.80
2018-06-07T13:46:54.307Z,25.13
2018-06-07T13:49:23.084Z,25.07
2018-06-07T13:51:51.930Z,25.27
2018-06-07T13:54:20.715Z,25.38
2018-06-07T13:56:49.505Z,25.62
2018-06-07T13:59:18.301Z,25.80
2018-06-07T14:01:47.085Z,25.83
2018-06-07T14:04:15.874Z,25.91
2018-06-07T14:06:44.702Z,26.02
2018-06-07T14:09:13.920Z,25.99
2018-06-07T14:11:42.721Z,26.14
2018-06-07T14:14:11.570Z,26.07
2018-06-07T14:16:40.355Z,26.11
2018-06-07T14:19:09.130Z,26.24
2018-06-07T14:21:37.908Z,26.11
2018-06-07T14:24:06.705Z,26.06
2018-06-07T14:26:35.471Z,25.97
2018-06-07T14:29:04.299Z,25.88
2018-06-07T14:31:33.092Z,25.60
2018-06-07T14:34:01.884Z,25.45
2018-06-07T14:36:30.682Z,25.44
2018-06-07T14:38:59.468Z,25.47
2018-06-07T14:41:28.254Z,25.43
2018-06-07T14:43:57.026Z,25.40
2018-06-07T14:46:25.841Z,25.46
2018-06-07T14:48:54.620Z,25.45
2018-06-07T14:51:23.395Z,25.43
2018-06-07T14:53:52.173Z,25.38
2018-06-07T14:56:20.969Z,25.38
2018-06-07T14:58:49.793Z,25.28
2018-06-07T15:01:18.554Z,25.33
2018-06-07T15:03:47.344Z,25.39
2018-06-07T15:06:16.138Z,25.35
2018-06-07T15:08:44.952Z,25.53
2018-06-07T15:11:13.739Z,25.53
2018-06-07T15:13:42.522Z,25.75
2018-06-07T15:16:11.305Z,25.71
2018-06-07T15:18:40.122Z,25.77
2018-06-07T15:21:09.069Z,26.00
2018-06-07T15:23:37.873Z,26.10
2018-06-07T15:26:06.676Z,26.05
2018-06-07T15:28:35.498Z,26.02
2018-06-07T15:31:04.363Z,26.14
2018-06-07T15:33:33.130Z,25.93
2018-06-07T15:36:01.949Z,25.85
2018-06-07T15:38:30.746Z,25.87
2018-06-07T15:40:59.544Z,25.89
2018-06-07T15:43:28.467Z,25.68
2018-06-07T15:45:57.348Z,25.65
2018-06-07T15:48:26.103Z,25.72
2018-06-07T15:50:54.943Z,25.73
2018-06-07T15:53:23.740Z,25.55
2018-06-07T15:55:52.560Z,25.27
2018-06-07T15:58:21.393Z,25.17
2018-06-07T16:00:50.200Z,25.11
2018-06-07T16:03:19.013Z,25.07
2018-06-07T16:05:47.861Z,24.75
2018-06-07T16:08:16.629Z,24.68
2018-06-07T16:10:45.427Z,24.56
2018-06-07T16:13:14.214Z,24.54
2018-06-07T16:15:43.019Z,24.50
2018-06-07T16:18:11.786Z,24.60
2018-06-07T16:20:40.616Z,24.64
2018-06-07T16:23:09.425Z,24.57
2018-06-07T16:25:38.223Z,24.61
2018-06-07T16:28:07.133Z,24.69
2018-06-07T16:30:35.907Z,24.59
2018-06-07T16:33:04.738Z,24.62
2018-06-07T16:49:09.323Z,23.92
2018-06-07T16:51:38.170Z,23.91
2018-06-07T16:54:06.935Z,23.88
2018-06-07T16:56:35.728Z,23.86
2018-06-07T16:59:04.572Z,23.80
2018-06-07T17:01:33.362Z,23.70
2018-06-07T17:04:02.178Z,23.68
2018-06-07T17:06:31.000Z,23.46
2018-06-07T17:08:59.835Z,23.33
2018-06-07T17:11:28.717Z,23.24
2018-06-07T17:13:57.481Z,23.25
2018-06-07T17:16:26.339Z,23.23
2018-06-07T17:18:55.102Z,23.09
2018-06-07T17:21:23.878Z,22.98
2018-06-07T17:23:52.718Z,22.93
2018-06-07T17:26:21.559Z,22.93
2018-06-07T17:28:50.337Z,22.92
2018-06-07T17:31:19.233Z,22.85
2018-06-07T17:33:48.128Z,22.69
2018-06-07T17:36:16.975Z,22.63
2018-06-07T17:38:45.758Z,22.44
2018-06-07T17:41:14.566Z,22.29
2018-06-07T17:43:43.335Z,22.19
2018-06-07T17:46:12.165Z,22.07
2018-06-07T17:48:41.011Z,22.06
2018-06-07T17:51:09.792Z,21.92
2018-06-07T17:53:38.906Z,21.74
2018-06-07T17:56:07.680Z,21.69
2018-06-07T17:58:36.563Z,21.63
2018-06-07T18:01:05.436Z,21.55
2018-06-07T18:03:34.218Z,21.48
2018-06-07T18:06:02.983Z,21.46
2018-06-07T18:08:31.787Z,21.36
2018-06-07T18:11:00.580Z,21.29
2018-06-07T18:13:29.493Z,21.23
2018-06-07T18:15:58.339Z,21.15
2018-06-07T18:18:27.297Z,21.09
2018-06-07T18:30:11.258Z,20.50
2018-06-07T18:32:40.076Z,20.40
2018-06-07T18:35:08.950Z,20.29
2018-06-07T18:37:37.739Z,20.22
2018-06-07T18:58:26.619Z,19.42
2018-06-07T19:00:55.393Z,19.37
2018-06-07T19:03:24.177Z,19.32
2018-06-07T19:05:52.972Z,19.27
2018-06-07T19:08:21.772Z,19.26
2018-06-07T19:10:50.577Z,19.26
2018-06-07T19:13:24.318Z,19.24
2018-06-07T19:15:53.131Z,19.25
2018-06-07T19:18:22.305Z,19.43
2018-06-07T19:20:56.193Z,19.45
2018-06-07T19:23:25.025Z,19.46
2018-06-07T19:25:58.903Z,19.57
2018-06-07T19:28:27.863Z,19.71
2018-06-07T19:30:56.672Z,19.72
2018-06-07T19:33:30.674Z,19.71
2018-06-07T19:35:59.541Z,19.69
2018-06-07T19:38:28.338Z,19.64
2018-06-07T19:41:02.275Z,19.59
2018-06-07T19:43:31.062Z,19.62
2018-06-07T19:45:59.849Z,19.58
2018-06-07T19:48:28.663Z,19.57
2018-06-07T19:50:57.457Z,19.52
2018-06-07T19:53:26.280Z,19.58
2018-06-07T19:55:55.117Z,19.65
2018-06-07T19:58:23.918Z,19.76
2018-06-07T20:00:52.720Z,19.85
2018-06-07T20:03:21.648Z,19.83
2018-06-07T20:05:50.436Z,19.75
2018-06-07T20:08:19.247Z,19.69
2018-06-07T20:10:48.063Z,19.56
2018-06-07T20:13:16.845Z,19.43
2018-06-07T20:15:45.667Z,19.37
2018-06-07T20:18:14.520Z,19.20
2018-06-07T20:20:43.397Z,19.21
2018-06-07T20:23:12.200Z,19.16
2018-06-07T20:25:41.079Z,19.17
2018-06-07T20:28:09.875Z,19.17
2018-06-07T20:30:38.708Z,19.20
2018-06-07T20:33:07.556Z,19.16
2018-06-07T20:35:36.374Z,19.21
2018-06-07T20:38:05.164Z,19.25
2018-06-07T20:40:33.959Z,19.28
2018-06-07T20:43:02.723Z,19.28
2018-06-07T20:45:31.499Z,19.26
2018-06-07T20:48:00.417Z,19.33
2018-06-07T20:50:29.242Z,19.31
2018-06-07T20:52:58.026Z,19.33
2018-06-07T20:55:26.797Z,19.27
2018-06-07T20:57:55.583Z,19.25
2018-06-07T21:00:24.380Z,19.18
2018-06-07T21:02:53.156Z,19.09
2018-06-07T21:05:21.965Z,19.07
2018-06-07T21:07:50.729Z,19.05
2018-06-07T21:10:19.603Z,19.01
2018-06-07T21:12:48.363Z,18.97
2018-06-07T21:15:17.138Z,18.94
2018-06-07T21:17:45.899Z,18.95
2018-06-07T21:20:14.680Z,18.95
2018-06-07T21:22:43.425Z,18.91
2018-06-07T21:25:12.209Z,18.88
2018-06-07T21:27:40.992Z,18.79
2018-06-07T21:30:09.813Z,18.73
2018-06-07T21:32:38.714Z,18.65
2018-06-07T21:35:07.487Z,18.56
2018-06-07T21:37:36.248Z,18.49
2018-06-07T21:40:05.043Z,18.34
2018-06-07T21:42:33.834Z,18.30
2018-06-07T21:45:02.582Z,18.32
2018-06-07T21:47:31.367Z,18.40
2018-06-07T21:50:00.163Z,18.38
2018-06-07T21:52:28.968Z,18.39
2018-06-07T21:54:57.829Z,18.41
2018-06-07T21:57:26.596Z,18.40
2018-06-07T21:59:55.391Z,18.41
2018-06-07T22:02:24.175Z,18.38
2018-06-07T22:04:52.950Z,18.46
2018-06-07T22:07:21.719Z,18.46
2018-06-07T22:09:50.487Z,18.42
2018-06-07T22:12:19.287Z,18.44
2018-06-07T22:14:48.072Z,18.44
2018-06-07T22:17:16.905Z,18.47
2018-06-07T22:19:45.770Z,18.50
2018-06-07T22:22:14.616Z,18.50
2018-06-07T22:24:43.439Z,18.61
2018-06-07T22:27:12.252Z,18.66
2018-06-07T22:29:41.064Z,18.66
2018-06-07T22:32:09.930Z,18.67
2018-06-07T22:34:38.764Z,18.62
2018-06-07T22:37:07.550Z,18.54
2018-06-07T22:39:36.443Z,18.52
2018-06-07T22:42:05.225Z,18.51
2018-06-07T22:44:34.001Z,18.49
2018-06-07T22:47:02.803Z,18.44
2018-06-07T22:49:31.571Z,18.35
2018-06-07T22:52:00.365Z,18.32
2018-06-07T22:54:29.159Z,18.28
2018-06-07T22:56:57.976Z,18.32
2018-06-07T22:59:26.735Z,18.37
2018-06-07T23:01:55.585Z,18.32
2018-06-07T23:04:24.355Z,18.32
2018-06-07T23:06:53.137Z,18.26
2018-06-07T23:09:22.029Z,18.27
2018-06-07T23:11:50.799Z,18.06
2018-06-07T23:14:19.576Z,17.85
2018-06-07T23:16:48.360Z,17.96
2018-06-07T23:19:17.123Z,17.89
2018-06-07T23:21:45.936Z,17.88
2018-06-07T23:24:14.732Z,17.86
2018-06-07T23:26:43.498Z,17.82
2018-06-07T23:29:12.225Z,17.80
2018-06-07T23:31:41.006Z,17.82
2018-06-07T23:34:09.748Z,17.88
2018-06-07T23:36:38.516Z,17.88
2018-06-07T23:39:09.258Z,17.88
2018-06-07T23:41:38.233Z,17.81
2018-06-07T23:44:07.058Z,17.82
2018-06-07T23:46:35.918Z,17.70
2018-06-07T23:49:04.654Z,17.78
2018-06-07T23:51:33.552Z,17.73
2018-06-07T23:54:02.316Z,17.69
2018-06-07T23:56:31.073Z,17.67
2018-06-07T23:58:59.872Z,17.68
